sensor_id;sensor_type;location;lat;lon;timestamp;P1;durP1;ratioP1;P2;durP2;ratioP2
41799;SDS011;27468;47.460;19.034;2022-11-15T00:00:50;133.77;;;38.50;;
41799;SDS011;27468;47.460;19.034;2022-11-15T00:03:18;122.90;;;37.90;;
41799;SDS011;27468;47.460;19.034;2022-11-15T00:05:45;121.72;;;36.20;;
41799;SDS011;27468;47.460;19.034;2022-11-15T00:08:11;117.20;;;36.35;;
41799;SDS011;27468;47.460;19.034;2022-11-15T00:10:37;115.60;;;34.90;;
41799;SDS011;27468;47.460;19.034;2022-11-15T00:13:06;111.97;;;34.75;;
41799;SDS011;27468;47.460;19.034;2022-11-15T00:15:39;104.38;;;33.67;;
41799;SDS011;27468;47.460;19.034;2022-11-15T00:18:06;103.63;;;33.35;;
41799;SDS011;27468;47.460;19.034;2022-11-15T00:20:36;99.07;;;31.50;;
41799;SDS011;27468;47.460;19.034;2022-11-15T00:23:05;103.35;;;33.22;;
41799;SDS011;27468;47.460;19.034;2022-11-15T00:25:31;100.05;;;33.05;;
41799;SDS011;27468;47.460;19.034;2022-11-15T00:27:57;94.53;;;31.98;;
41799;SDS011;27468;47.460;19.034;2022-11-15T00:30:23;100.18;;;30.88;;
41799;SDS011;27468;47.460;19.034;2022-11-15T00:32:49;102.63;;;32.55;;
41799;SDS011;27468;47.460;19.034;2022-11-15T00:35:14;103.07;;;33.03;;
41799;SDS011;27468;47.460;19.034;2022-11-15T00:37:40;98.13;;;32.92;;
41799;SDS011;27468;47.460;19.034;2022-11-15T00:40:06;100.10;;;33.10;;
41799;SDS011;27468;47.460;19.034;2022-11-15T00:42:32;99.45;;;33.15;;
41799;SDS011;27468;47.460;19.034;2022-11-15T00:44:57;100.05;;;32.78;;
41799;SDS011;27468;47.460;19.034;2022-11-15T00:47:23;100.65;;;32.38;;
41799;SDS011;27468;47.460;19.034;2022-11-15T00:49:48;95.80;;;30.67;;
41799;SDS011;27468;47.460;19.034;2022-11-15T00:52:13;95.25;;;32.35;;
41799;SDS011;27468;47.460;19.034;2022-11-15T00:54:39;91.97;;;31.35;;
41799;SDS011;27468;47.460;19.034;2022-11-15T00:57:04;94.45;;;31.20;;
41799;SDS011;27468;47.460;19.034;2022-11-15T00:59:29;93.05;;;31.27;;
41799;SDS011;27468;47.460;19.034;2022-11-15T01:01:55;95.32;;;31.85;;
41799;SDS011;27468;47.460;19.034;2022-11-15T01:04:20;88.28;;;29.58;;
41799;SDS011;27468;47.460;19.034;2022-11-15T01:06:46;91.63;;;30.50;;
41799;SDS011;27468;47.460;19.034;2022-11-15T01:09:11;92.03;;;31.83;;
41799;SDS011;27468;47.460;19.034;2022-11-15T01:11:38;95.05;;;31.05;;
41799;SDS011;27468;47.460;19.034;2022-11-15T01:14:04;87.22;;;30.13;;
41799;SDS011;27468;47.460;19.034;2022-11-15T01:16:29;81.75;;;29.95;;
41799;SDS011;27468;47.460;19.034;2022-11-15T01:18:54;85.30;;;29.10;;
41799;SDS011;27468;47.460;19.034;2022-11-15T01:21:20;88.10;;;31.65;;
41799;SDS011;27468;47.460;19.034;2022-11-15T01:23:45;83.45;;;30.48;;
41799;SDS011;27468;47.460;19.034;2022-11-15T01:26:12;86.03;;;29.55;;
41799;SDS011;27468;47.460;19.034;2022-11-15T01:28:40;80.43;;;29.23;;
41799;SDS011;27468;47.460;19.034;2022-11-15T01:31:10;86.60;;;30.00;;
41799;SDS011;27468;47.460;19.034;2022-11-15T01:33:38;75.40;;;29.50;;
41799;SDS011;27468;47.460;19.034;2022-11-15T01:36:07;77.85;;;29.10;;
41799;SDS011;27468;47.460;19.034;2022-11-15T01:38:36;77.32;;;27.92;;
41799;SDS011;27468;47.460;19.034;2022-11-15T01:41:02;73.90;;;28.30;;
41799;SDS011;27468;47.460;19.034;2022-11-15T01:43:29;65.45;;;27.05;;
41799;SDS011;27468;47.460;19.034;2022-11-15T01:45:58;64.13;;;26.02;;
41799;SDS011;27468;47.460;19.034;2022-11-15T01:48:40;63.35;;;26.42;;
41799;SDS011;27468;47.460;19.034;2022-11-15T01:51:07;62.10;;;25.90;;
41799;SDS011;27468;47.460;19.034;2022-11-15T01:53:37;59.20;;;25.33;;
41799;SDS011;27468;47.460;19.034;2022-11-15T01:56:06;58.50;;;25.25;;
41799;SDS011;27468;47.460;19.034;2022-11-15T01:58:36;55.92;;;24.88;;
41799;SDS011;27468;47.460;19.034;2022-11-15T02:01:02;54.03;;;24.63;;
41799;SDS011;27468;47.460;19.034;2022-11-15T02:03:36;53.47;;;24.45;;
41799;SDS011;27468;47.460;19.034;2022-11-15T02:06:09;52.13;;;23.60;;
41799;SDS011;27468;47.460;19.034;2022-11-15T02:08:35;49.85;;;23.50;;
41799;SDS011;27468;47.460;19.034;2022-11-15T02:11:00;48.30;;;23.95;;
41799;SDS011;27468;47.460;19.034;2022-11-15T02:13:25;49.60;;;24.15;;
41799;SDS011;27468;47.460;19.034;2022-11-15T02:16:06;51.83;;;23.85;;
41799;SDS011;27468;47.460;19.034;2022-11-15T02:18:52;52.22;;;23.83;;
41799;SDS011;27468;47.460;19.034;2022-11-15T02:21:49;52.30;;;23.75;;
41799;SDS011;27468;47.460;19.034;2022-11-15T02:32:58;48.33;;;23.00;;
41799;SDS011;27468;47.460;19.034;2022-11-15T02:38:34;41.95;;;20.60;;
41799;SDS011;27468;47.460;19.034;2022-11-15T02:41:20;40.28;;;19.85;;
41799;SDS011;27468;47.460;19.034;2022-11-15T02:43:54;39.88;;;19.08;;
41799;SDS011;27468;47.460;19.034;2022-11-15T02:49:15;33.42;;;17.50;;
41799;SDS011;27468;47.460;19.034;2022-11-15T02:51:42;31.55;;;15.85;;
41799;SDS011;27468;47.460;19.034;2022-11-15T02:54:14;32.75;;;17.05;;
41799;SDS011;27468;47.460;19.034;2022-11-15T02:56:44;31.60;;;16.83;;
41799;SDS011;27468;47.460;19.034;2022-11-15T02:59:33;31.77;;;17.00;;
41799;SDS011;27468;47.460;19.034;2022-11-15T03:03:27;30.05;;;16.33;;
41799;SDS011;27468;47.460;19.034;2022-11-15T03:08:08;29.85;;;16.80;;
41799;SDS011;27468;47.460;19.034;2022-11-15T03:15:49;35.17;;;18.15;;
41799;SDS011;27468;47.460;19.034;2022-11-15T03:18:26;35.97;;;18.08;;
41799;SDS011;27468;47.460;19.034;2022-11-15T03:20:57;32.13;;;17.88;;
41799;SDS011;27468;47.460;19.034;2022-11-15T03:23:28;35.55;;;17.98;;
41799;SDS011;27468;47.460;19.034;2022-11-15T03:25:55;35.58;;;17.90;;
41799;SDS011;27468;47.460;19.034;2022-11-15T03:28:28;37.35;;;19.45;;
41799;SDS011;27468;47.460;19.034;2022-11-15T03:30:59;36.55;;;17.83;;
41799;SDS011;27468;47.460;19.034;2022-11-15T03:33:48;34.45;;;17.08;;
41799;SDS011;27468;47.460;19.034;2022-11-15T03:36:18;35.05;;;18.60;;
41799;SDS011;27468;47.460;19.034;2022-11-15T03:38:45;35.38;;;17.92;;
41799;SDS011;27468;47.460;19.034;2022-11-15T03:41:15;36.20;;;17.73;;
41799;SDS011;27468;47.460;19.034;2022-11-15T03:43:48;30.58;;;16.48;;
41799;SDS011;27468;47.460;19.034;2022-11-15T03:46:32;33.90;;;16.15;;
41799;SDS011;27468;47.460;19.034;2022-11-15T03:49:09;32.97;;;17.10;;
41799;SDS011;27468;47.460;19.034;2022-11-15T03:51:39;31.40;;;15.57;;
41799;SDS011;27468;47.460;19.034;2022-11-15T03:54:05;30.65;;;16.10;;
41799;SDS011;27468;47.460;19.034;2022-11-15T03:56:30;30.13;;;16.17;;
41799;SDS011;27468;47.460;19.034;2022-11-15T03:58:56;32.95;;;16.67;;
41799;SDS011;27468;47.460;19.034;2022-11-15T04:01:21;32.50;;;16.00;;
41799;SDS011;27468;47.460;19.034;2022-11-15T04:03:47;31.75;;;16.60;;
41799;SDS011;27468;47.460;19.034;2022-11-15T04:06:12;29.70;;;15.15;;
41799;SDS011;27468;47.460;19.034;2022-11-15T04:08:37;31.10;;;16.30;;
41799;SDS011;27468;47.460;19.034;2022-11-15T04:11:03;27.50;;;14.77;;
41799;SDS011;27468;47.460;19.034;2022-11-15T04:13:28;27.60;;;15.13;;
41799;SDS011;27468;47.460;19.034;2022-11-15T04:15:54;29.52;;;16.30;;
41799;SDS011;27468;47.460;19.034;2022-11-15T04:18:19;27.42;;;15.00;;
41799;SDS011;27468;47.460;19.034;2022-11-15T04:20:44;26.88;;;14.82;;
41799;SDS011;27468;47.460;19.034;2022-11-15T04:23:28;26.52;;;14.13;;
41799;SDS011;27468;47.460;19.034;2022-11-15T04:26:32;28.40;;;15.02;;
41799;SDS011;27468;47.460;19.034;2022-11-15T04:28:57;28.00;;;15.10;;
41799;SDS011;27468;47.460;19.034;2022-11-15T04:31:42;26.50;;;14.57;;
41799;SDS011;27468;47.460;19.034;2022-11-15T04:34:07;29.50;;;15.95;;
41799;SDS011;27468;47.460;19.034;2022-11-15T04:36:32;28.95;;;14.55;;
41799;SDS011;27468;47.460;19.034;2022-11-15T04:39:16;28.63;;;15.23;;
41799;SDS011;27468;47.460;19.034;2022-11-15T04:41:42;25.98;;;14.77;;
41799;SDS011;27468;47.460;19.034;2022-11-15T04:44:07;27.95;;;15.50;;
41799;SDS011;27468;47.460;19.034;2022-11-15T04:46:33;28.77;;;14.50;;
41799;SDS011;27468;47.460;19.034;2022-11-15T04:48:58;27.92;;;14.82;;
41799;SDS011;27468;47.460;19.034;2022-11-15T04:51:23;26.58;;;14.63;;
41799;SDS011;27468;47.460;19.034;2022-11-15T04:53:49;26.52;;;15.05;;
41799;SDS011;27468;47.460;19.034;2022-11-15T04:56:14;25.98;;;15.45;;
41799;SDS011;27468;47.460;19.034;2022-11-15T04:58:40;31.00;;;15.02;;
41799;SDS011;27468;47.460;19.034;2022-11-15T05:01:08;28.80;;;14.68;;
41799;SDS011;27468;47.460;19.034;2022-11-15T05:03:34;25.77;;;14.98;;
41799;SDS011;27468;47.460;19.034;2022-11-15T05:06:18;27.20;;;14.50;;
41799;SDS011;27468;47.460;19.034;2022-11-15T05:08:44;27.38;;;15.05;;
41799;SDS011;27468;47.460;19.034;2022-11-15T05:11:09;27.10;;;14.57;;
41799;SDS011;27468;47.460;19.034;2022-11-15T05:13:35;26.48;;;14.57;;
41799;SDS011;27468;47.460;19.034;2022-11-15T05:16:00;28.05;;;15.38;;
41799;SDS011;27468;47.460;19.034;2022-11-15T05:18:25;30.15;;;16.20;;
41799;SDS011;27468;47.460;19.034;2022-11-15T05:20:51;26.45;;;15.13;;
41799;SDS011;27468;47.460;19.034;2022-11-15T05:23:16;26.90;;;15.18;;
41799;SDS011;27468;47.460;19.034;2022-11-15T05:25:41;26.35;;;15.18;;
41799;SDS011;27468;47.460;19.034;2022-11-15T05:28:07;23.85;;;14.85;;
41799;SDS011;27468;47.460;19.034;2022-11-15T05:30:32;29.80;;;16.00;;
41799;SDS011;27468;47.460;19.034;2022-11-15T05:32:58;28.17;;;15.45;;
41799;SDS011;27468;47.460;19.034;2022-11-15T05:35:30;25.52;;;15.32;;
41799;SDS011;27468;47.460;19.034;2022-11-15T05:38:00;29.45;;;15.68;;
41799;SDS011;27468;47.460;19.034;2022-11-15T05:40:25;27.75;;;15.63;;
41799;SDS011;27468;47.460;19.034;2022-11-15T05:42:52;25.77;;;16.02;;
41799;SDS011;27468;47.460;19.034;2022-11-15T05:45:18;27.88;;;15.27;;
41799;SDS011;27468;47.460;19.034;2022-11-15T05:47:43;26.75;;;15.75;;
41799;SDS011;27468;47.460;19.034;2022-11-15T05:50:11;29.55;;;16.45;;
41799;SDS011;27468;47.460;19.034;2022-11-15T05:52:38;27.45;;;15.77;;
41799;SDS011;27468;47.460;19.034;2022-11-15T05:55:05;25.60;;;15.00;;
41799;SDS011;27468;47.460;19.034;2022-11-15T05:57:33;28.75;;;16.20;;
41799;SDS011;27468;47.460;19.034;2022-11-15T05:59:59;28.35;;;16.25;;
41799;SDS011;27468;47.460;19.034;2022-11-15T06:02:24;29.55;;;16.77;;
41799;SDS011;27468;47.460;19.034;2022-11-15T06:04:50;31.10;;;16.90;;
41799;SDS011;27468;47.460;19.034;2022-11-15T06:07:15;27.35;;;16.38;;
41799;SDS011;27468;47.460;19.034;2022-11-15T06:09:41;32.55;;;18.73;;
41799;SDS011;27468;47.460;19.034;2022-11-15T06:12:06;31.27;;;17.60;;
41799;SDS011;27468;47.460;19.034;2022-11-15T06:14:31;32.83;;;17.63;;
41799;SDS011;27468;47.460;19.034;2022-11-15T06:16:57;31.95;;;18.30;;
41799;SDS011;27468;47.460;19.034;2022-11-15T06:19:22;30.40;;;17.63;;
41799;SDS011;27468;47.460;19.034;2022-11-15T06:21:48;32.30;;;17.48;;
41799;SDS011;27468;47.460;19.034;2022-11-15T06:24:13;34.45;;;18.75;;
41799;SDS011;27468;47.460;19.034;2022-11-15T06:26:38;33.75;;;19.27;;
41799;SDS011;27468;47.460;19.034;2022-11-15T06:29:04;34.22;;;18.50;;
41799;SDS011;27468;47.460;19.034;2022-11-15T06:31:29;34.40;;;18.98;;
41799;SDS011;27468;47.460;19.034;2022-11-15T06:33:55;31.48;;;18.60;;
41799;SDS011;27468;47.460;19.034;2022-11-15T06:36:20;32.83;;;18.55;;
41799;SDS011;27468;47.460;19.034;2022-11-15T06:38:46;32.90;;;18.45;;
41799;SDS011;27468;47.460;19.034;2022-11-15T06:41:12;33.67;;;19.73;;
41799;SDS011;27468;47.460;19.034;2022-11-15T06:43:39;34.33;;;20.00;;
41799;SDS011;27468;47.460;19.034;2022-11-15T06:46:05;32.42;;;18.98;;
41799;SDS011;27468;47.460;19.034;2022-11-15T06:48:32;31.73;;;19.45;;
41799;SDS011;27468;47.460;19.034;2022-11-15T06:51:02;37.35;;;20.10;;
41799;SDS011;27468;47.460;19.034;2022-11-15T06:53:29;31.95;;;19.83;;
41799;SDS011;27468;47.460;19.034;2022-11-15T06:56:02;37.92;;;20.80;;
41799;SDS011;27468;47.460;19.034;2022-11-15T06:58:29;32.90;;;20.45;;
41799;SDS011;27468;47.460;19.034;2022-11-15T07:00:58;34.17;;;20.15;;
41799;SDS011;27468;47.460;19.034;2022-11-15T07:03:25;37.20;;;21.15;;
41799;SDS011;27468;47.460;19.034;2022-11-15T07:05:51;35.30;;;20.30;;
41799;SDS011;27468;47.460;19.034;2022-11-15T07:08:18;35.60;;;20.20;;
41799;SDS011;27468;47.460;19.034;2022-11-15T07:10:44;35.03;;;20.73;;
41799;SDS011;27468;47.460;19.034;2022-11-15T07:13:09;36.00;;;20.88;;
41799;SDS011;27468;47.460;19.034;2022-11-15T07:15:35;37.40;;;20.95;;
41799;SDS011;27468;47.460;19.034;2022-11-15T07:18:00;37.08;;;20.98;;
41799;SDS011;27468;47.460;19.034;2022-11-15T07:20:26;34.33;;;20.30;;
41799;SDS011;27468;47.460;19.034;2022-11-15T07:22:54;35.80;;;20.70;;
41799;SDS011;27468;47.460;19.034;2022-11-15T07:25:24;34.63;;;20.92;;
41799;SDS011;27468;47.460;19.034;2022-11-15T07:27:56;34.50;;;21.08;;
41799;SDS011;27468;47.460;19.034;2022-11-15T07:30:23;35.38;;;21.48;;
41799;SDS011;27468;47.460;19.034;2022-11-15T07:32:53;36.75;;;20.55;;
41799;SDS011;27468;47.460;19.034;2022-11-15T07:35:27;36.17;;;20.63;;
41799;SDS011;27468;47.460;19.034;2022-11-15T07:37:54;36.80;;;20.52;;
41799;SDS011;27468;47.460;19.034;2022-11-15T07:40:24;32.97;;;20.35;;
41799;SDS011;27468;47.460;19.034;2022-11-15T07:42:50;37.03;;;22.27;;
41799;SDS011;27468;47.460;19.034;2022-11-15T07:45:20;34.10;;;21.00;;
41799;SDS011;27468;47.460;19.034;2022-11-15T07:47:48;34.38;;;20.60;;
41799;SDS011;27468;47.460;19.034;2022-11-15T07:50:14;34.75;;;21.10;;
41799;SDS011;27468;47.460;19.034;2022-11-15T07:52:40;36.20;;;21.00;;
41799;SDS011;27468;47.460;19.034;2022-11-15T07:55:06;34.67;;;21.15;;
41799;SDS011;27468;47.460;19.034;2022-11-15T07:57:32;35.75;;;20.17;;
41799;SDS011;27468;47.460;19.034;2022-11-15T07:59:57;34.10;;;20.98;;
41799;SDS011;27468;47.460;19.034;2022-11-15T08:02:23;35.65;;;21.50;;
41799;SDS011;27468;47.460;19.034;2022-11-15T08:04:48;36.10;;;21.30;;
41799;SDS011;27468;47.460;19.034;2022-11-15T08:07:13;34.88;;;21.60;;
41799;SDS011;27468;47.460;19.034;2022-11-15T08:09:39;35.15;;;20.38;;
41799;SDS011;27468;47.460;19.034;2022-11-15T08:12:04;35.30;;;21.55;;
41799;SDS011;27468;47.460;19.034;2022-11-15T08:14:30;34.72;;;20.67;;
41799;SDS011;27468;47.460;19.034;2022-11-15T08:16:55;36.08;;;21.45;;
41799;SDS011;27468;47.460;19.034;2022-11-15T08:19:21;34.97;;;20.85;;
41799;SDS011;27468;47.460;19.034;2022-11-15T08:21:46;35.60;;;21.38;;
41799;SDS011;27468;47.460;19.034;2022-11-15T08:24:12;34.03;;;21.10;;
41799;SDS011;27468;47.460;19.034;2022-11-15T08:26:38;34.53;;;21.38;;
41799;SDS011;27468;47.460;19.034;2022-11-15T08:29:04;34.67;;;20.70;;
41799;SDS011;27468;47.460;19.034;2022-11-15T08:31:30;39.03;;;21.73;;
41799;SDS011;27468;47.460;19.034;2022-11-15T08:33:56;35.63;;;21.58;;
41799;SDS011;27468;47.460;19.034;2022-11-15T08:36:21;35.95;;;21.40;;
41799;SDS011;27468;47.460;19.034;2022-11-15T08:38:46;38.15;;;21.15;;
41799;SDS011;27468;47.460;19.034;2022-11-15T08:41:23;37.22;;;21.52;;
41799;SDS011;27468;47.460;19.034;2022-11-15T08:43:51;34.35;;;20.83;;
41799;SDS011;27468;47.460;19.034;2022-11-15T08:46:17;38.10;;;23.17;;
41799;SDS011;27468;47.460;19.034;2022-11-15T08:48:43;38.90;;;22.52;;
41799;SDS011;27468;47.460;19.034;2022-11-15T08:51:08;42.33;;;24.77;;
41799;SDS011;27468;47.460;19.034;2022-11-15T08:53:34;39.33;;;23.98;;
41799;SDS011;27468;47.460;19.034;2022-11-15T08:56:00;36.33;;;22.35;;
41799;SDS011;27468;47.460;19.034;2022-11-15T08:58:25;42.30;;;23.95;;
41799;SDS011;27468;47.460;19.034;2022-11-15T09:00:51;40.22;;;22.67;;
41799;SDS011;27468;47.460;19.034;2022-11-15T09:03:16;38.40;;;23.52;;
41799;SDS011;27468;47.460;19.034;2022-11-15T09:05:41;39.65;;;23.70;;
41799;SDS011;27468;47.460;19.034;2022-11-15T09:08:07;38.25;;;22.77;;
41799;SDS011;27468;47.460;19.034;2022-11-15T09:10:33;38.53;;;23.23;;
41799;SDS011;27468;47.460;19.034;2022-11-15T09:12:58;38.25;;;22.20;;
41799;SDS011;27468;47.460;19.034;2022-11-15T09:15:24;36.63;;;20.95;;
41799;SDS011;27468;47.460;19.034;2022-11-15T09:17:49;33.55;;;19.85;;
41799;SDS011;27468;47.460;19.034;2022-11-15T09:20:14;35.80;;;20.75;;
41799;SDS011;27468;47.460;19.034;2022-11-15T09:22:40;36.25;;;21.73;;
41799;SDS011;27468;47.460;19.034;2022-11-15T09:25:06;32.47;;;20.70;;
41799;SDS011;27468;47.460;19.034;2022-11-15T09:27:32;34.03;;;21.77;;
41799;SDS011;27468;47.460;19.034;2022-11-15T09:29:57;35.55;;;21.67;;
41799;SDS011;27468;47.460;19.034;2022-11-15T09:32:23;35.40;;;22.27;;
41799;SDS011;27468;47.460;19.034;2022-11-15T09:34:49;35.38;;;22.33;;
41799;SDS011;27468;47.460;19.034;2022-11-15T09:37:14;36.55;;;22.38;;
41799;SDS011;27468;47.460;19.034;2022-11-15T09:39:40;38.05;;;22.70;;
41799;SDS011;27468;47.460;19.034;2022-11-15T09:42:17;37.67;;;23.35;;
41799;SDS011;27468;47.460;19.034;2022-11-15T09:50:08;38.33;;;23.73;;
41799;SDS011;27468;47.460;19.034;2022-11-15T09:52:35;36.28;;;22.83;;
41799;SDS011;27468;47.460;19.034;2022-11-15T09:55:02;36.47;;;23.58;;
41799;SDS011;27468;47.460;19.034;2022-11-15T10:00:36;38.63;;;23.65;;
41799;SDS011;27468;47.460;19.034;2022-11-15T10:03:12;34.28;;;21.77;;
41799;SDS011;27468;47.460;19.034;2022-11-15T10:05:42;38.97;;;24.45;;
41799;SDS011;27468;47.460;19.034;2022-11-15T10:09:11;37.03;;;24.25;;
41799;SDS011;27468;47.460;19.034;2022-11-15T10:11:20;40.97;;;24.45;;
41799;SDS011;27468;47.460;19.034;2022-11-15T10:13:52;39.35;;;23.30;;
41799;SDS011;27468;47.460;19.034;2022-11-15T10:22:16;41.42;;;25.25;;
41799;SDS011;27468;47.460;19.034;2022-11-15T10:24:49;41.45;;;25.33;;
41799;SDS011;27468;47.460;19.034;2022-11-15T10:27:18;39.97;;;24.60;;
41799;SDS011;27468;47.460;19.034;2022-11-15T10:29:45;43.15;;;26.67;;
41799;SDS011;27468;47.460;19.034;2022-11-15T10:32:13;39.85;;;24.80;;
41799;SDS011;27468;47.460;19.034;2022-11-15T10:34:40;42.97;;;24.27;;
41799;SDS011;27468;47.460;19.034;2022-11-15T10:37:06;43.17;;;25.23;;
41799;SDS011;27468;47.460;19.034;2022-11-15T10:39:31;44.47;;;26.23;;
41799;SDS011;27468;47.460;19.034;2022-11-15T10:41:58;40.25;;;24.67;;
41799;SDS011;27468;47.460;19.034;2022-11-15T10:44:42;44.75;;;24.77;;
41799;SDS011;27468;47.460;19.034;2022-11-15T10:47:25;43.03;;;25.67;;
41799;SDS011;27468;47.460;19.034;2022-11-15T10:50:03;40.33;;;25.63;;
41799;SDS011;27468;47.460;19.034;2022-11-15T10:52:48;42.83;;;26.33;;
41799;SDS011;27468;47.460;19.034;2022-11-15T10:57:39;41.40;;;25.83;;
41799;SDS011;27468;47.460;19.034;2022-11-15T11:03:05;41.80;;;25.55;;
41799;SDS011;27468;47.460;19.034;2022-11-15T11:08:20;41.22;;;25.92;;
41799;SDS011;27468;47.460;19.034;2022-11-15T11:10:57;35.75;;;23.00;;
41799;SDS011;27468;47.460;19.034;2022-11-15T11:13:28;33.75;;;22.17;;
41799;SDS011;27468;47.460;19.034;2022-11-15T11:21:10;36.63;;;24.40;;
41799;SDS011;27468;47.460;19.034;2022-11-15T11:23:52;41.10;;;24.58;;
41799;SDS011;27468;47.460;19.034;2022-11-15T11:29:00;35.80;;;23.95;;
41799;SDS011;27468;47.460;19.034;2022-11-15T11:34:29;39.28;;;23.88;;
41799;SDS011;27468;47.460;19.034;2022-11-15T11:48:55;37.97;;;23.95;;
41799;SDS011;27468;47.460;19.034;2022-11-15T11:51:33;39.08;;;23.77;;
41799;SDS011;27468;47.460;19.034;2022-11-15T11:56:55;40.15;;;24.20;;
41799;SDS011;27468;47.460;19.034;2022-11-15T11:59:37;38.78;;;23.73;;
41799;SDS011;27468;47.460;19.034;2022-11-15T12:02:18;40.55;;;24.63;;
41799;SDS011;27468;47.460;19.034;2022-11-15T12:07:24;39.67;;;24.13;;
41799;SDS011;27468;47.460;19.034;2022-11-15T12:15:42;43.38;;;25.73;;
41799;SDS011;27468;47.460;19.034;2022-11-15T12:18:14;46.50;;;27.05;;
41799;SDS011;27468;47.460;19.034;2022-11-15T12:20:42;46.63;;;26.85;;
41799;SDS011;27468;47.460;19.034;2022-11-15T12:23:20;44.05;;;26.70;;
41799;SDS011;27468;47.460;19.034;2022-11-15T12:25:55;52.70;;;30.27;;
41799;SDS011;27468;47.460;19.034;2022-11-15T12:36:12;47.38;;;28.20;;
41799;SDS011;27468;47.460;19.034;2022-11-15T12:39:06;51.80;;;27.77;;
41799;SDS011;27468;47.460;19.034;2022-11-15T12:41:32;49.88;;;29.75;;
41799;SDS011;27468;47.460;19.034;2022-11-15T12:43:59;53.90;;;31.55;;
41799;SDS011;27468;47.460;19.034;2022-11-15T12:49:01;53.10;;;30.40;;
41799;SDS011;27468;47.460;19.034;2022-11-15T12:54:58;57.58;;;31.77;;
41799;SDS011;27468;47.460;19.034;2022-11-15T13:17:39;58.28;;;32.58;;
41799;SDS011;27468;47.460;19.034;2022-11-15T13:22:39;63.17;;;34.22;;
41799;SDS011;27468;47.460;19.034;2022-11-15T13:31:42;51.55;;;30.70;;
41799;SDS011;27468;47.460;19.034;2022-11-15T13:36:14;59.45;;;34.80;;
41799;SDS011;27468;47.460;19.034;2022-11-15T13:38:43;47.97;;;27.52;;
41799;SDS011;27468;47.460;19.034;2022-11-15T13:41:16;49.63;;;29.10;;
41799;SDS011;27468;47.460;19.034;2022-11-15T13:43:45;44.92;;;25.45;;
41799;SDS011;27468;47.460;19.034;2022-11-15T13:49:07;45.13;;;24.88;;
41799;SDS011;27468;47.460;19.034;2022-11-15T13:51:42;45.60;;;26.27;;
41799;SDS011;27468;47.460;19.034;2022-11-15T13:56:38;51.50;;;29.27;;
41799;SDS011;27468;47.460;19.034;2022-11-15T14:01:41;54.10;;;29.45;;
41799;SDS011;27468;47.460;19.034;2022-11-15T14:04:12;51.35;;;28.83;;
41799;SDS011;27468;47.460;19.034;2022-11-15T14:06:44;49.95;;;28.15;;
41799;SDS011;27468;47.460;19.034;2022-11-15T14:11:50;52.17;;;26.75;;
41799;SDS011;27468;47.460;19.034;2022-11-15T14:14:20;47.92;;;26.65;;
41799;SDS011;27468;47.460;19.034;2022-11-15T14:16:50;49.42;;;26.45;;
41799;SDS011;27468;47.460;19.034;2022-11-15T14:24:39;43.85;;;23.83;;
41799;SDS011;27468;47.460;19.034;2022-11-15T14:27:18;45.08;;;24.98;;
41799;SDS011;27468;47.460;19.034;2022-11-15T14:29:46;45.63;;;25.55;;
41799;SDS011;27468;47.460;19.034;2022-11-15T14:32:14;48.90;;;26.13;;
41799;SDS011;27468;47.460;19.034;2022-11-15T14:34:45;47.33;;;26.13;;
41799;SDS011;27468;47.460;19.034;2022-11-15T14:37:44;47.28;;;26.48;;
41799;SDS011;27468;47.460;19.034;2022-11-15T14:40:03;47.13;;;26.23;;
41799;SDS011;27468;47.460;19.034;2022-11-15T14:42:30;46.20;;;26.05;;
41799;SDS011;27468;47.460;19.034;2022-11-15T14:44:56;43.83;;;22.85;;
41799;SDS011;27468;47.460;19.034;2022-11-15T14:47:21;41.83;;;22.02;;
41799;SDS011;27468;47.460;19.034;2022-11-15T14:49:47;45.33;;;24.33;;
41799;SDS011;27468;47.460;19.034;2022-11-15T14:52:29;40.92;;;23.98;;
41799;SDS011;27468;47.460;19.034;2022-11-15T14:54:59;43.45;;;22.55;;
41799;SDS011;27468;47.460;19.034;2022-11-15T14:57:27;45.20;;;23.42;;
41799;SDS011;27468;47.460;19.034;2022-11-15T14:59:53;43.83;;;24.52;;
41799;SDS011;27468;47.460;19.034;2022-11-15T15:02:19;46.70;;;24.88;;
41799;SDS011;27468;47.460;19.034;2022-11-15T15:04:47;46.20;;;24.48;;
41799;SDS011;27468;47.460;19.034;2022-11-15T15:07:13;45.70;;;25.33;;
41799;SDS011;27468;47.460;19.034;2022-11-15T15:09:39;47.13;;;25.75;;
41799;SDS011;27468;47.460;19.034;2022-11-15T15:12:25;51.92;;;28.83;;
41799;SDS011;27468;47.460;19.034;2022-11-15T15:14:50;45.97;;;25.02;;
41799;SDS011;27468;47.460;19.034;2022-11-15T15:17:16;48.63;;;26.45;;
41799;SDS011;27468;47.460;19.034;2022-11-15T15:19:42;48.55;;;26.00;;
41799;SDS011;27468;47.460;19.034;2022-11-15T15:22:17;48.35;;;26.58;;
41799;SDS011;27468;47.460;19.034;2022-11-15T15:24:46;48.53;;;26.83;;
41799;SDS011;27468;47.460;19.034;2022-11-15T15:27:12;51.47;;;27.63;;
41799;SDS011;27468;47.460;19.034;2022-11-15T15:29:38;50.50;;;27.75;;
41799;SDS011;27468;47.460;19.034;2022-11-15T15:32:04;49.00;;;26.60;;
41799;SDS011;27468;47.460;19.034;2022-11-15T15:34:30;50.05;;;26.55;;
41799;SDS011;27468;47.460;19.034;2022-11-15T15:37:09;46.42;;;25.77;;
41799;SDS011;27468;47.460;19.034;2022-11-15T15:39:49;50.72;;;26.17;;
41799;SDS011;27468;47.460;19.034;2022-11-15T15:42:15;43.63;;;23.58;;
41799;SDS011;27468;47.460;19.034;2022-11-15T15:44:40;49.05;;;25.92;;
41799;SDS011;27468;47.460;19.034;2022-11-15T15:47:12;46.92;;;24.85;;
41799;SDS011;27468;47.460;19.034;2022-11-15T15:49:41;48.17;;;26.27;;
41799;SDS011;27468;47.460;19.034;2022-11-15T15:52:06;46.80;;;25.30;;
41799;SDS011;27468;47.460;19.034;2022-11-15T15:54:32;46.08;;;26.10;;
41799;SDS011;27468;47.460;19.034;2022-11-15T15:56:57;51.13;;;28.10;;
41799;SDS011;27468;47.460;19.034;2022-11-15T15:59:22;52.38;;;27.58;;
41799;SDS011;27468;47.460;19.034;2022-11-15T16:01:48;52.97;;;28.52;;
41799;SDS011;27468;47.460;19.034;2022-11-15T16:04:13;59.65;;;29.60;;
41799;SDS011;27468;47.460;19.034;2022-11-15T16:06:39;55.13;;;28.40;;
41799;SDS011;27468;47.460;19.034;2022-11-15T16:09:12;53.17;;;26.90;;
41799;SDS011;27468;47.460;19.034;2022-11-15T16:11:42;51.85;;;26.95;;
41799;SDS011;27468;47.460;19.034;2022-11-15T16:14:09;54.83;;;27.15;;
41799;SDS011;27468;47.460;19.034;2022-11-15T16:16:35;51.85;;;25.77;;
41799;SDS011;27468;47.460;19.034;2022-11-15T16:19:01;57.50;;;28.17;;
41799;SDS011;27468;47.460;19.034;2022-11-15T16:21:27;56.65;;;27.58;;
41799;SDS011;27468;47.460;19.034;2022-11-15T16:23:53;52.78;;;26.30;;
41799;SDS011;27468;47.460;19.034;2022-11-15T16:26:25;55.83;;;27.50;;
41799;SDS011;27468;47.460;19.034;2022-11-15T16:28:52;58.65;;;28.58;;
41799;SDS011;27468;47.460;19.034;2022-11-15T16:31:18;60.22;;;28.55;;
41799;SDS011;27468;47.460;19.034;2022-11-15T16:33:46;59.55;;;28.05;;
41799;SDS011;27468;47.460;19.034;2022-11-15T16:36:21;57.45;;;27.45;;
41799;SDS011;27468;47.460;19.034;2022-11-15T16:38:48;56.47;;;27.90;;